Time;durP1;ratioP1;P1;durP2;ratioP2;P2;SDS_P1;SDS_P2;PMS_P1;PMS_P2;Temp;Humidity;BMP_temperature;BMP_pressure;BME280_temperature;BME280_humidity;BME280_pressure;Samples;Min_cycle;Max_cycle;Signal;HPM_P1;HPM_P2
2021/12/17 00:01:09;;;;;;;36.00;16.10;;;5.40;92.80;;;;;;5030774;28;20722;-72
2021/12/17 00:03:44;;;;;;;31.97;16.17;;;5.40;92.80;;;;;;5030109;28;20826;-72
2021/12/17 00:06:29;;;;;;;29.33;14.97;;;5.30;92.80;;;;;;5024728;28;20463;-72
2021/12/17 00:08:57;;;;;;;29.40;14.37;;;5.30;92.90;;;;;;5008492;28;20420;-72
2021/12/17 00:11:23;;;;;;;24.50;14.10;;;5.40;92.90;;;;;;5030373;28;20432;-72
2021/12/17 00:13:50;;;;;;;31.03;14.20;;;5.50;92.90;;;;;;5005509;28;20436;-72
2021/12/17 00:16:21;;;;;;;28.43;14.93;;;5.50;92.40;;;;;;5026254;28;21074;-71
2021/12/17 00:19:01;;;;;;;26.80;13.70;;;5.50;92.30;;;;;;5028875;28;20439;-72
2021/12/17 00:48:44;;;;;;;31.38;15.52;;;5.20;93.80;;;;;;5032253;28;20435;-71
2021/12/17 00:54:07;;;;;;;33.53;16.23;;;5.30;94.20;;;;;;5031969;28;20246;-71
2021/12/17 00:56:33;;;;;;;29.83;17.50;;;5.30;94.00;;;;;;5032177;28;20485;-71
2021/12/17 00:58:59;;;;;;;32.80;17.00;;;5.30;94.00;;;;;;5031955;28;20451;-71
2021/12/17 01:01:25;;;;;;;27.37;14.53;;;5.30;94.10;;;;;;5028196;28;20947;-71
2021/12/17 01:03:52;;;;;;;27.80;17.27;;;5.40;94.00;;;;;;5014986;28;20212;-70
2021/12/17 01:06:19;;;;;;;29.70;14.93;;;5.40;93.90;;;;;;5013610;28;20480;-71
2021/12/17 01:08:45;;;;;;;34.10;15.60;;;5.50;93.80;;;;;;5033834;28;20420;-71
2021/12/17 01:11:11;;;;;;;28.13;14.87;;;5.50;93.50;;;;;;5032063;28;20431;-71
2021/12/17 01:13:40;;;;;;;30.37;15.30;;;5.40;93.50;;;;;;5015397;28;20435;-72
2021/12/17 01:16:08;;;;;;;26.90;14.27;;;5.40;93.40;;;;;;5038368;28;20192;-72
2021/12/17 01:18:48;;;;;;;32.80;14.63;;;5.30;93.30;;;;;;5043847;28;20504;-71
2021/12/17 01:42:42;;;;;;;32.27;16.10;;;5.50;94.00;;;;;;5032674;28;20427;-71
2021/12/17 01:45:08;;;;;;;26.97;16.43;;;5.60;93.70;;;;;;5032312;28;20420;-71
2021/12/17 01:47:34;;;;;;;33.57;16.23;;;5.70;93.50;;;;;;5014478;28;20205;-71
2021/12/17 02:00:57;;;;;;;32.97;17.60;;;5.60;93.50;;;;;;5032298;28;20438;-71
2021/12/17 02:03:24;;;;;;;35.70;17.50;;;5.60;93.60;;;;;;5031658;28;20451;-71
2021/12/17 02:05:50;;;;;;;33.30;17.67;;;5.70;93.70;;;;;;5032379;28;20204;-70
2021/12/17 02:08:15;;;;;;;34.30;17.93;;;5.70;93.60;;;;;;5032484;28;20460;-71
2021/12/17 02:11:34;;;;;;;32.63;17.87;;;5.60;93.30;;;;;;5011556;28;20461;-71
2021/12/17 02:32:41;;;;;;;35.50;16.53;;;5.50;93.60;;;;;;5026447;28;20940;-72
2021/12/17 02:37:41;;;;;;;31.57;16.47;;;5.60;93.70;;;;;;5031500;28;20937;-73
2021/12/17 02:45:32;;;;;;;25.97;15.20;;;5.60;93.80;;;;;;5026197;28;20967;-71
2021/12/17 02:48:18;;;;;;;29.37;15.50;;;5.60;93.70;;;;;;5010329;28;21036;-71
2021/12/17 02:50:47;;;;;;;29.10;17.00;;;5.60;93.80;;;;;;5023180;28;20546;-72
2021/12/17 02:53:16;;;;;;;30.80;16.30;;;5.60;93.70;;;;;;5031245;28;20408;-71
2021/12/17 02:55:46;;;;;;;32.23;16.83;;;5.60;93.80;;;;;;5024794;28;20795;-70
2021/12/17 02:58:12;;;;;;;35.37;15.80;;;5.60;93.90;;;;;;5031182;28;20964;-70
2021/12/17 03:00:41;;;;;;;26.73;16.07;;;5.70;93.90;;;;;;5030845;28;20460;-71
2021/12/17 03:03:08;;;;;;;33.17;15.57;;;5.70;93.90;;;;;;5030525;28;20440;-70
2021/12/17 03:05:37;;;;;;;28.37;15.33;;;5.80;93.80;;;;;;5030274;28;20423;-73
2021/12/17 03:08:05;;;;;;;29.93;15.93;;;5.90;93.70;;;;;;5029829;28;20486;-70
2021/12/17 03:10:31;;;;;;;31.47;16.13;;;6.00;93.30;;;;;;5016535;28;20454;-70
2021/12/17 03:13:01;;;;;;;27.93;17.27;;;6.00;93.10;;;;;;5030359;28;20544;-70
2021/12/17 03:26:12;;;;;;;25.03;14.93;;;6.10;93.00;;;;;;5018670;28;20918;-71
2021/12/17 03:28:41;;;;;;;34.30;16.57;;;6.10;92.90;;;;;;5029813;28;20568;-71
2021/12/17 03:31:09;;;;;;;30.87;16.00;;;6.10;92.90;;;;;;5031634;28;20431;-71
2021/12/17 03:33:36;;;;;;;37.47;16.60;;;6.10;93.00;;;;;;5031248;28;20497;-71
2021/12/17 03:36:01;;;;;;;34.80;18.13;;;6.10;92.90;;;;;;5015903;28;20420;-72
2021/12/17 03:38:27;;;;;;;29.23;15.70;;;6.10;92.80;;;;;;5028184;28;20532;-72
2021/12/17 03:41:05;;;;;;;35.00;16.07;;;6.00;92.80;;;;;;5026146;28;20639;-72
2021/12/17 03:43:32;;;;;;;26.87;15.40;;;6.00;92.60;;;;;;5030503;28;20789;-72
2021/12/17 03:45:58;;;;;;;36.57;16.90;;;5.80;92.80;;;;;;5034253;28;20488;-72
2021/12/17 03:48:24;;;;;;;33.17;15.23;;;5.80;93.00;;;;;;5030432;28;20527;-71
2021/12/17 03:50:50;;;;;;;32.27;15.87;;;5.60;93.30;;;;;;5029642;28;20224;-71
2021/12/17 03:53:15;;;;;;;29.17;16.30;;;5.60;93.60;;;;;;5029568;28;20265;-73
2021/12/17 03:55:41;;;;;;;28.90;15.57;;;5.50;93.80;;;;;;5012002;28;20185;-71
2021/12/17 03:58:07;;;;;;;30.70;15.87;;;5.60;93.90;;;;;;5027173;28;20228;-72
2021/12/17 04:00:33;;;;;;;29.50;15.30;;;5.60;94.00;;;;;;5029954;28;20197;-71
2021/12/17 04:02:59;;;;;;;29.30;15.00;;;5.60;93.90;;;;;;5029343;28;20185;-71
2021/12/17 04:05:25;;;;;;;28.30;15.30;;;5.50;94.00;;;;;;5029708;28;20948;-71
2021/12/17 04:07:51;;;;;;;30.20;14.97;;;5.50;94.10;;;;;;5029710;28;20467;-72
2021/12/17 04:10:18;;;;;;;28.17;15.03;;;5.50;94.30;;;;;;5029484;28;20444;-72
2021/12/17 04:12:59;;;;;;;37.10;17.37;;;5.50;94.30;;;;;;5030112;28;20182;-72
2021/12/17 04:15:34;;;;;;;27.87;14.67;;;5.50;94.30;;;;;;5012386;28;20510;-71
2021/12/17 04:18:00;;;;;;;31.20;16.53;;;5.40;94.30;;;;;;5028915;28;21083;-71
2021/12/17 04:20:27;;;;;;;32.33;17.10;;;5.40;94.50;;;;;;5029345;28;20440;-71
2021/12/17 04:22:53;;;;;;;32.40;17.33;;;5.40;94.70;;;;;;5028896;28;20411;-70
2021/12/17 04:25:18;;;;;;;36.97;18.30;;;5.40;94.70;;;;;;5029179;28;20428;-72
2021/12/17 04:27:44;;;;;;;33.17;17.90;;;5.30;94.90;;;;;;5010207;28;20891;-71
2021/12/17 04:30:10;;;;;;;33.33;15.83;;;5.30;95.10;;;;;;5024261;28;20209;-71
2021/12/17 04:32:36;;;;;;;28.00;15.70;;;5.30;95.30;;;;;;5026246;28;20818;-71
2021/12/17 04:35:03;;;;;;;39.00;18.23;;;5.30;95.50;;;;;;5023055;28;20424;-71
2021/12/17 04:37:29;;;;;;;29.77;16.90;;;5.30;95.60;;;;;;5033606;28;20205;-70
2021/12/17 04:39:54;;;;;;;34.30;16.77;;;5.30;95.70;;;;;;5041995;28;20513;-70
2021/12/17 04:42:31;;;;;;;33.00;16.00;;;5.30;95.70;;;;;;5038616;28;20193;-71
2021/12/17 04:44:58;;;;;;;33.90;17.80;;;5.40;95.70;;;;;;5021461;28;20658;-72
2021/12/17 04:58:38;;;;;;;31.13;16.33;;;5.50;95.70;;;;;;5029617;28;20477;-72
2021/12/17 05:01:10;;;;;;;34.93;17.17;;;5.60;95.80;;;;;;5021350;28;20811;-72
2021/12/17 05:03:35;;;;;;;32.43;16.63;;;5.70;95.80;;;;;;5029869;28;20205;-71
2021/12/17 05:06:01;;;;;;;35.50;18.20;;;5.70;95.60;;;;;;5010280;28;20478;-72
2021/12/17 05:08:28;;;;;;;32.97;18.20;;;5.70;95.50;;;;;;5029844;28;20714;-71
2021/12/17 05:22:10;;;;;;;31.13;16.00;;;6.00;94.60;;;;;;4987164;28;21124;-71
2021/12/17 05:24:36;;;;;;;30.37;16.33;;;6.00;94.20;;;;;;4988030;28;20428;-71
2021/12/17 05:27:02;;;;;;;28.70;15.40;;;6.00;94.10;;;;;;4987604;28;20461;-73
2021/12/17 05:29:28;;;;;;;29.80;17.10;;;6.10;94.10;;;;;;4990073;28;20218;-71
2021/12/17 05:31:54;;;;;;;39.33;19.60;;;6.10;93.90;;;;;;4990912;28;20448;-72
2021/12/17 05:34:19;;;;;;;26.87;15.03;;;6.10;93.80;;;;;;4990982;28;20322;-71
2021/12/17 05:36:45;;;;;;;33.60;17.13;;;6.00;93.90;;;;;;4991483;28;20322;-71
2021/12/17 05:39:11;;;;;;;27.00;16.17;;;6.10;94.00;;;;;;4991798;28;20206;-72
2021/12/17 05:41:36;;;;;;;32.27;15.53;;;6.10;93.90;;;;;;4989828;28;20268;-71
2021/12/17 05:44:02;;;;;;;30.47;15.63;;;6.10;93.90;;;;;;4990501;28;20205;-72
2021/12/17 05:46:48;;;;;;;28.67;15.00;;;6.20;93.70;;;;;;4990567;28;20767;-72
2021/12/17 05:49:25;;;;;;;29.20;16.40;;;6.20;93.50;;;;;;4992853;28;21034;-71
2021/12/17 05:51:52;;;;;;;27.93;14.70;;;6.30;93.40;;;;;;4994047;28;20417;-71
2021/12/17 05:54:19;;;;;;;30.13;16.20;;;6.30;93.50;;;;;;4990189;28;20433;-71
2021/12/17 05:56:46;;;;;;;26.80;14.00;;;6.30;93.70;;;;;;5021420;28;20846;-72
2021/12/17 05:59:11;;;;;;;26.00;14.40;;;6.30;93.80;;;;;;5013770;28;20448;-71
2021/12/17 06:01:37;;;;;;;30.30;16.40;;;6.40;93.70;;;;;;5030790;28;20431;-71
2021/12/17 06:04:03;;;;;;;32.93;16.77;;;6.40;93.60;;;;;;5013987;28;20652;-72
2021/12/17 06:06:32;;;;;;;29.33;15.43;;;6.40;93.40;;;;;;5031548;28;20617;-72
2021/12/17 06:09:00;;;;;;;30.27;16.67;;;6.50;93.30;;;;;;5013872;28;20934;-70
2021/12/17 06:11:26;;;;;;;25.33;14.20;;;6.50;93.20;;;;;;5030886;28;20428;-71
2021/12/17 06:13:52;;;;;;;30.10;15.80;;;6.50;93.20;;;;;;5013857;28;20470;-72
2021/12/17 06:16:17;;;;;;;30.03;15.17;;;6.50;93.10;;;;;;5014075;28;20212;-72
2021/12/17 06:18:43;;;;;;;33.57;16.03;;;6.50;93.10;;;;;;5031719;28;20225;-72
2021/12/17 06:21:10;;;;;;;28.63;14.90;;;6.50;93.10;;;;;;5031082;28;20260;-72
2021/12/17 06:23:36;;;;;;;29.87;15.10;;;6.50;93.20;;;;;;5031419;28;20262;-72
2021/12/17 06:26:02;;;;;;;31.10;17.13;;;6.50;93.30;;;;;;5031368;28;20420;-72
2021/12/17 06:28:28;;;;;;;32.67;14.70;;;6.50;93.30;;;;;;5026130;28;20479;-72
2021/12/17 06:30:53;;;;;;;23.60;13.53;;;6.50;93.30;;;;;;5005813;28;20299;-72
2021/12/17 06:33:19;;;;;;;23.93;12.40;;;6.60;93.40;;;;;;5027664;28;20181;-71
2021/12/17 06:35:45;;;;;;;28.03;14.03;;;6.60;93.10;;;;;;5031384;28;20689;-72
2021/12/17 06:38:10;;;;;;;28.53;14.50;;;6.70;92.80;;;;;;5032138;28;20228;-71
2021/12/17 06:40:36;;;;;;;23.93;13.43;;;6.70;92.60;;;;;;5030422;28;20204;-72
2021/12/17 06:43:03;;;;;;;23.63;13.87;;;6.60;92.50;;;;;;5030566;28;20192;-71
2021/12/17 06:45:48;;;;;;;27.67;14.60;;;6.60;92.60;;;;;;5031152;28;20639;-71
2021/12/17 06:48:14;;;;;;;29.20;15.27;;;6.60;92.80;;;;;;5011794;28;20490;-70
2021/12/17 07:23:16;;;;;;;23.10;12.10;;;6.20;93.40;;;;;;4935080;29;20438;-71
2021/12/17 07:33:43;;;;;;;22.37;12.10;;;6.30;92.40;;;;;;4942764;29;20212;-72
2021/12/17 07:36:13;;;;;;;23.60;11.80;;;6.40;92.40;;;;;;4944481;29;20499;-72
2021/12/17 07:38:43;;;;;;;22.10;11.07;;;6.40;92.40;;;;;;4942668;29;20435;-72
2021/12/17 07:41:09;;;;;;;21.77;11.47;;;6.30;92.30;;;;;;4946475;29;21020;-73
2021/12/17 07:43:38;;;;;;;21.33;11.20;;;6.30;92.30;;;;;;4949108;29;20519;-71
2021/12/17 07:46:08;;;;;;;25.97;12.10;;;6.40;92.30;;;;;;4944773;29;20235;-71
2021/12/17 07:48:34;;;;;;;23.50;12.10;;;6.40;92.00;;;;;;5019026;28;20770;-72
2021/12/17 07:51:02;;;;;;;23.73;10.83;;;6.40;91.60;;;;;;5037936;28;20436;-72
2021/12/17 07:53:30;;;;;;;18.80;11.20;;;6.50;91.50;;;;;;5034643;28;20423;-72
2021/12/17 07:55:57;;;;;;;22.60;11.13;;;6.50;91.30;;;;;;5034888;28;20504;-72
2021/12/17 07:58:23;;;;;;;21.90;10.70;;;6.40;91.00;;;;;;5037558;28;20430;-72
2021/12/17 08:00:49;;;;;;;21.90;9.67;;;6.40;90.70;;;;;;5034172;28;20446;-72
2021/12/17 08:03:15;;;;;;;18.30;9.80;;;6.40;90.60;;;;;;5035095;28;20439;-74
2021/12/17 08:05:45;;;;;;;20.77;10.23;;;6.40;90.40;;;;;;5034011;28;20500;-72
2021/12/17 08:08:10;;;;;;;15.63;8.83;;;6.40;90.30;;;;;;5035293;28;21021;-73
2021/12/17 08:10:36;;;;;;;22.63;11.70;;;6.50;90.20;;;;;;5030150;28;20551;-72
2021/12/17 08:13:02;;;;;;;17.43;10.33;;;6.50;90.20;;;;;;5029749;28;20208;-71
2021/12/17 08:15:33;;;;;;;20.87;10.33;;;6.60;90.00;;;;;;5016273;28;20900;-75
2021/12/17 08:28:25;;;;;;;16.73;9.50;;;6.50;88.40;;;;;;5029224;28;20557;-72
2021/12/17 08:30:51;;;;;;;18.07;8.60;;;6.50;88.90;;;;;;5030657;28;20443;-71
2021/12/17 08:33:20;;;;;;;16.30;9.10;;;6.50;89.00;;;;;;5019431;28;20447;-71
2021/12/17 08:35:46;;;;;;;18.23;9.53;;;6.50;88.70;;;;;;5033716;28;20197;-71
2021/12/17 08:38:12;;;;;;;14.20;7.30;;;6.40;88.90;;;;;;5030809;28;20427;-72
2021/12/17 08:40:38;;;;;;;15.53;8.57;;;6.40;88.60;;;;;;5039682;28;20435;-72
2021/12/17 08:43:05;;;;;;;14.77;8.63;;;6.40;88.70;;;;;;5031118;28;20424;-72
2021/12/17 08:45:31;;;;;;;13.57;7.30;;;6.40;88.70;;;;;;5036577;28;20439;-72
2021/12/17 08:47:57;;;;;;;16.30;9.27;;;6.30;88.70;;;;;;5030397;28;20471;-71
2021/12/17 08:50:23;;;;;;;15.73;8.70;;;6.30;88.70;;;;;;5033216;28;20448;-72
2021/12/17 08:52:49;;;;;;;14.50;9.70;;;6.20;89.20;;;;;;5012170;28;20173;-71
2021/12/17 08:55:15;;;;;;;16.20;8.20;;;6.20;89.60;;;;;;5031056;28;20519;-71
2021/12/17 08:57:41;;;;;;;16.63;9.00;;;6.20;89.50;;;;;;5010928;28;20256;-72
2021/12/17 09:00:10;;;;;;;12.50;7.27;;;6.30;89.00;;;;;;5021115;28;20451;-71
2021/12/17 09:02:37;;;;;;;15.00;7.67;;;6.20;88.70;;;;;;5027021;28;20479;-72
2021/12/17 09:05:05;;;;;;;14.00;8.00;;;6.20;88.90;;;;;;5033522;28;20426;-72
2021/12/17 09:07:31;;;;;;;13.83;7.47;;;6.20;88.90;;;;;;5034051;28;20459;-71
2021/12/17 09:09:57;;;;;;;18.37;10.23;;;6.20;89.00;;;;;;5029958;28;20446;-72
2021/12/17 09:12:23;;;;;;;13.40;7.30;;;6.20;88.90;;;;;;5018027;28;20427;-71
2021/12/17 09:14:49;;;;;;;16.83;7.67;;;6.20;88.70;;;;;;5035343;28;20564;-71
2021/12/17 09:17:15;;;;;;;14.20;7.90;;;6.30;88.90;;;;;;5033613;28;20423;-71
2021/12/17 09:19:41;;;;;;;13.77;7.30;;;6.30;88.10;;;;;;5034467;28;20236;-72
2021/12/17 09:22:07;;;;;;;14.97;8.50;;;6.30;88.10;;;;;;5033980;28;20482;-72
2021/12/17 09:24:32;;;;;;;12.27;7.90;;;6.30;88.40;;;;;;5033582;28;20181;-72
2021/12/17 09:26:58;;;;;;;13.37;7.43;;;6.30;88.60;;;;;;5033133;28;20232;-72
2021/12/17 09:29:24;;;;;;;15.10;7.53;;;6.30;88.60;;;;;;5032616;28;20259;-72
2021/12/17 09:31:50;;;;;;;15.90;9.10;;;6.30;88.60;;;;;;5031691;28;20533;-72
2021/12/17 09:34:16;;;;;;;12.43;7.37;;;6.20;88.90;;;;;;5032489;28;20182;-72
2021/12/17 09:36:42;;;;;;;10.83;6.70;;;6.30;88.70;;;;;;5031717;28;20431;-71
2021/12/17 09:39:07;;;;;;;12.33;7.57;;;6.30;88.30;;;;;;5036943;28;20209;-72
2021/12/17 09:41:33;;;;;;;17.33;8.70;;;6.30;88.10;;;;;;5029123;28;20189;-71
2021/12/17 09:43:59;;;;;;;17.50;8.60;;;6.30;88.30;;;;;;5032163;28;20674;-72
2021/12/17 09:46:25;;;;;;;11.87;6.83;;;6.30;88.60;;;;;;5026395;28;20733;-73
2021/12/17 09:48:51;;;;;;;15.07;8.63;;;6.40;88.10;;;;;;5014158;28;20582;-72
2021/12/17 09:51:19;;;;;;;14.63;8.03;;;6.50;87.80;;;;;;5031597;28;20430;-71
2021/12/17 09:53:45;;;;;;;13.97;7.17;;;6.50;87.80;;;;;;5032420;28;20265;-72
2021/12/17 09:56:11;;;;;;;16.47;7.57;;;6.50;88.00;;;;;;5038646;28;20942;-72
2021/12/17 09:58:37;;;;;;;12.37;6.63;;;6.60;87.40;;;;;;5032494;28;20468;-71
2021/12/17 10:01:03;;;;;;;13.70;8.83;;;6.70;86.90;;;;;;5031257;28;20506;-72
2021/12/17 10:03:29;;;;;;;14.97;8.10;;;6.80;86.30;;;;;;5032305;28;20216;-72
2021/12/17 10:05:55;;;;;;;12.80;7.50;;;6.80;86.20;;;;;;5032410;28;20832;-72
2021/12/17 10:08:23;;;;;;;16.67;7.33;;;6.90;85.90;;;;;;5032007;28;20468;-71
2021/12/17 10:10:53;;;;;;;12.67;7.13;;;6.80;86.00;;;;;;5030814;28;20777;-72
2021/12/17 10:13:19;;;;;;;12.13;7.23;;;6.90;85.60;;;;;;5031818;28;20518;-71
2021/12/17 10:15:48;;;;;;;10.93;6.93;;;7.00;85.20;;;;;;5026480;28;20500;-72
2021/12/17 10:18:14;;;;;;;12.67;7.40;;;6.90;85.50;;;;;;5025371;28;20193;-71
2021/12/17 10:20:57;;;;;;;12.60;7.00;;;6.90;85.70;;;;;;5031570;28;20444;-72
2021/12/17 10:23:24;;;;;;;14.57;7.77;;;6.90;85.60;;;;;;5028739;28;20421;-71
2021/12/17 10:25:50;;;;;;;15.17;7.53;;;6.90;85.60;;;;;;5024953;28;20482;-71
2021/12/17 10:28:16;;;;;;;11.10;7.30;;;6.90;85.50;;;;;;5031267;28;20471;-71
2021/12/17 10:30:46;;;;;;;14.53;7.60;;;6.90;85.30;;;;;;5030668;28;20432;-71
2021/12/17 10:33:17;;;;;;;12.20;7.60;;;7.00;85.00;;;;;;5031842;28;20420;-72
2021/12/17 10:35:46;;;;;;;14.43;8.60;;;7.00;85.00;;;;;;5031410;28;20898;-71
2021/12/17 10:38:15;;;;;;;12.07;6.93;;;7.00;85.00;;;;;;5028709;28;20529;-72
2021/12/17 10:40:59;;;;;;;17.03;8.93;;;7.10;84.60;;;;;;5028738;28;20471;-73
2021/12/17 10:43:32;;;;;;;16.00;7.53;;;7.10;84.30;;;;;;5031216;28;20490;-72
2021/12/17 10:51:31;;;;;;;12.90;7.63;;;7.50;82.80;;;;;;5030440;28;20416;-72
2021/12/17 10:54:19;;;;;;;13.90;8.37;;;7.70;81.70;;;;;;5008765;28;20412;-72
2021/12/17 10:56:55;;;;;;;16.73;9.60;;;8.00;80.50;;;;;;5028221;28;20436;-72
2021/12/17 10:59:24;;;;;;;16.60;9.63;;;8.00;79.90;;;;;;5020450;28;20483;-73
2021/12/17 11:01:54;;;;;;;15.00;8.77;;;7.90;80.90;;;;;;5030009;28;20428;-72
2021/12/17 11:04:25;;;;;;;15.13;9.10;;;7.90;81.50;;;;;;5028019;28;20465;-72
2021/12/17 11:06:59;;;;;;;19.73;9.87;;;7.70;82.20;;;;;;5030392;28;20466;-72
2021/12/17 11:09:39;;;;;;;18.03;9.40;;;7.50;83.10;;;;;;5026863;28;20796;-73
2021/12/17 11:12:13;;;;;;;17.37;9.70;;;7.40;84.00;;;;;;5029497;28;20964;-73
2021/12/17 11:14:40;;;;;;;19.33;10.00;;;7.40;84.30;;;;;;5030794;28;20450;-72
2021/12/17 11:17:08;;;;;;;20.87;9.83;;;7.40;84.30;;;;;;5013110;28;20432;-72
2021/12/17 11:19:35;;;;;;;16.07;9.10;;;7.30;84.10;;;;;;5033467;28;20535;-73
2021/12/17 11:22:01;;;;;;;20.10;9.70;;;7.30;84.10;;;;;;5029555;28;20470;-71
2021/12/17 11:24:27;;;;;;;17.67;8.80;;;7.30;84.00;;;;;;5027436;28;20518;-73
2021/12/17 11:26:53;;;;;;;23.30;10.20;;;7.40;84.30;;;;;;5029451;28;20471;-73
2021/12/17 11:29:19;;;;;;;18.13;10.70;;;7.40;84.30;;;;;;5038194;28;20453;-73
2021/12/17 11:31:47;;;;;;;17.30;8.67;;;7.30;85.00;;;;;;5028795;28;20427;-71
2021/12/17 11:34:16;;;;;;;17.90;9.30;;;7.30;85.00;;;;;;5028790;28;20423;-71
2021/12/17 11:36:42;;;;;;;22.50;10.80;;;7.30;85.60;;;;;;5029395;28;20423;-71
2021/12/17 11:39:25;;;;;;;15.43;8.70;;;7.30;85.90;;;;;;5033480;28;20486;-73
2021/12/17 11:42:18;;;;;;;14.90;9.20;;;7.10;86.20;;;;;;5032489;28;20181;-72
2021/12/17 11:45:23;;;;;;;17.00;9.50;;;7.10;86.50;;;;;;5029765;28;20509;-73
2021/12/17 11:47:35;;;;;;;16.37;9.50;;;7.10;86.60;;;;;;5032031;28;20475;-72
2021/12/17 11:50:05;;;;;;;20.03;10.03;;;7.10;86.60;;;;;;5012711;28;20970;-73
2021/12/17 11:52:34;;;;;;;19.27;9.50;;;7.10;86.60;;;;;;5012324;28;20511;-73
2021/12/17 11:55:36;;;;;;;19.60;9.37;;;7.10;85.70;;;;;;5030012;28;20507;-72
2021/12/17 11:58:07;;;;;;;17.93;9.57;;;7.10;85.70;;;;;;4926984;29;20432;-72
2021/12/17 12:00:38;;;;;;;17.60;9.50;;;7.20;85.60;;;;;;4914209;29;20527;-72
2021/12/17 12:03:23;;;;;;;15.97;8.93;;;7.20;85.50;;;;;;4926679;29;20578;-72
2021/12/17 12:05:59;;;;;;;19.93;9.13;;;7.20;85.90;;;;;;4927302;29;20457;-72
2021/12/17 12:08:51;;;;;;;18.50;9.50;;;7.20;86.20;;;;;;4929330;29;20531;-72
2021/12/17 12:11:20;;;;;;;16.70;8.90;;;7.30;86.30;;;;;;4928730;29;20543;-71
2021/12/17 12:13:48;;;;;;;19.93;9.90;;;7.30;85.70;;;;;;4921756;29;20460;-72
2021/12/17 12:16:25;;;;;;;16.87;8.73;;;7.40;85.30;;;;;;4918581;29;20457;-73
2021/12/17 12:19:07;;;;;;;15.87;8.80;;;7.50;84.60;;;;;;4901934;29;20962;-72
2021/12/17 12:21:38;;;;;;;15.03;9.13;;;7.50;84.40;;;;;;4923874;29;20477;-71
2021/12/17 12:24:11;;;;;;;23.63;9.43;;;7.50;84.10;;;;;;4917998;29;20468;-72
2021/12/17 12:26:45;;;;;;;23.27;8.97;;;7.50;84.60;;;;;;4926114;29;20455;-71
2021/12/17 12:29:13;;;;;;;15.53;9.07;;;7.50;84.90;;;;;;4903789;29;20456;-72
2021/12/17 12:31:42;;;;;;;16.13;8.63;;;7.50;85.00;;;;;;4922804;29;20424;-72
2021/12/17 12:34:10;;;;;;;15.83;7.67;;;7.60;85.00;;;;;;5005693;28;20435;-72
2021/12/17 12:36:51;;;;;;;14.93;8.23;;;7.60;84.70;;;;;;5016163;28;20821;-71
2021/12/17 12:39:27;;;;;;;12.67;7.73;;;7.60;85.20;;;;;;5031352;28;20827;-73
2021/12/17 12:41:58;;;;;;;15.33;7.40;;;7.70;84.90;;;;;;5034985;28;20922;-72
2021/12/17 12:44:39;;;;;;;15.73;8.33;;;7.80;84.40;;;;;;5016839;28;20424;-72
2021/12/17 12:47:09;;;;;;;18.43;9.67;;;7.80;84.30;;;;;;5015069;28;21051;-72
2021/12/17 12:49:50;;;;;;;14.07;7.17;;;7.90;84.40;;;;;;5032421;28;20478;-72
2021/12/17 12:52:24;;;;;;;13.20;7.47;;;8.00;84.10;;;;;;5029858;28;20429;-70
2021/12/17 12:54:56;;;;;;;14.70;7.00;;;8.00;83.80;;;;;;5035060;28;20506;-71
2021/12/17 12:57:32;;;;;;;13.87;7.90;;;8.00;83.80;;;;;;5016315;28;20438;-72
2021/12/17 13:00:10;;;;;;;19.40;8.10;;;8.00;83.80;;;;;;5034058;28;20508;-72
2021/12/17 13:02:36;;;;;;;15.27;7.87;;;8.10;84.00;;;;;;5034134;28;20447;-72
2021/12/17 13:05:04;;;;;;;12.73;7.43;;;8.20;83.60;;;;;;5033096;28;20428;-73
2021/12/17 13:07:51;;;;;;;13.20;6.33;;;8.30;83.30;;;;;;5031408;28;20605;-70
2021/12/17 13:10:41;;;;;;;14.00;7.30;;;8.50;82.80;;;;;;5028498;28;20435;-72
2021/12/17 13:13:19;;;;;;;12.83;7.50;;;8.50;81.80;;;;;;5033864;28;20553;-72
2021/12/17 13:16:05;;;;;;;17.80;7.87;;;8.50;81.70;;;;;;5031764;28;20809;-72
2021/12/17 13:24:14;;;;;;;16.43;8.60;;;8.60;81.90;;;;;;5031631;28;20451;-72
2021/12/17 13:26:49;;;;;;;15.87;8.77;;;8.70;82.50;;;;;;5031264;28;20439;-71
2021/12/17 13:29:33;;;;;;;14.43;7.80;;;8.80;82.40;;;;;;5033420;28;20439;-72
2021/12/17 13:32:03;;;;;;;17.17;8.40;;;8.90;81.80;;;;;;5032892;28;20906;-73
2021/12/17 13:34:36;;;;;;;14.67;7.93;;;8.80;81.90;;;;;;5032594;28;20427;-70
2021/12/17 13:37:21;;;;;;;20.10;9.10;;;8.80;81.90;;;;;;5033113;28;20423;-71
2021/12/17 13:40:10;;;;;;;15.93;7.70;;;8.80;82.20;;;;;;5031162;28;20565;-72
2021/12/17 13:42:42;;;;;;;13.73;8.33;;;8.60;82.50;;;;;;5032403;28;20451;-71
2021/12/17 13:45:15;;;;;;;14.83;8.47;;;8.40;83.40;;;;;;5027134;28;20518;-73
2021/12/17 13:47:46;;;;;;;16.50;8.43;;;8.40;84.10;;;;;;5027261;28;20455;-71
2021/12/17 13:50:19;;;;;;;16.37;8.60;;;8.30;84.60;;;;;;5032627;28;20451;-72
2021/12/17 13:52:54;;;;;;;20.57;9.23;;;8.40;84.70;;;;;;5026851;28;21000;-71
2021/12/17 13:55:35;;;;;;;18.60;9.30;;;8.40;84.30;;;;;;5025797;28;20428;-71
2021/12/17 13:58:07;;;;;;;18.10;8.33;;;8.20;84.60;;;;;;5024263;28;20455;-71
2021/12/17 14:00:36;;;;;;;14.07;8.47;;;8.20;85.00;;;;;;5029710;28;20440;-71
2021/12/17 14:03:03;;;;;;;17.40;8.77;;;8.20;85.30;;;;;;5029289;28;20447;-71
2021/12/17 14:08:37;;;;;;;14.57;8.60;;;8.20;85.70;;;;;;4981059;28;20471;-71
2021/12/17 14:11:03;;;;;;;19.40;8.23;;;8.40;85.50;;;;;;5030029;28;20463;-70
2021/12/17 14:13:29;;;;;;;15.73;8.80;;;8.40;85.00;;;;;;5022111;28;20444;-71
2021/12/17 14:15:57;;;;;;;22.43;10.00;;;8.50;84.70;;;;;;5028606;28;20196;-72
2021/12/17 14:18:26;;;;;;;16.20;8.00;;;8.40;84.40;;;;;;5028471;28;20432;-72
2021/12/17 14:20:53;;;;;;;17.43;8.57;;;8.40;84.60;;;;;;5026032;28;20455;-71
2021/12/17 14:23:25;;;;;;;14.13;7.67;;;8.40;84.90;;;;;;5028548;28;20424;-72
2021/12/17 14:25:58;;;;;;;16.70;9.07;;;8.50;84.70;;;;;;5024778;28;20906;-72
2021/12/17 14:28:32;;;;;;;15.67;7.77;;;8.50;84.70;;;;;;5029555;28;20911;-71
2021/12/17 14:31:15;;;;;;;16.53;8.70;;;8.40;85.00;;;;;;5014059;28;20966;-72
2021/12/17 14:33:46;;;;;;;17.27;8.93;;;8.40;85.20;;;;;;5032410;28;20775;-72
2021/12/17 14:36:14;;;;;;;17.77;8.90;;;8.40;85.60;;;;;;5027165;28;20498;-72
2021/12/17 14:38:45;;;;;;;15.43;7.63;;;8.40;85.90;;;;;;5027476;28;20672;-71
2021/12/17 14:41:38;;;;;;;14.60;8.40;;;8.30;85.90;;;;;;5031737;28;20428;-71
2021/12/17 15:03:41;;;;;;;21.77;10.57;;;7.80;88.00;;;;;;5026425;28;20446;-72
2021/12/17 15:06:09;;;;;;;21.10;9.83;;;7.70;88.00;;;;;;5025415;28;20527;-71
2021/12/17 15:08:35;;;;;;;19.70;10.63;;;7.70;88.30;;;;;;5031223;28;20448;-72
2021/12/17 15:11:13;;;;;;;20.77;11.77;;;7.70;88.10;;;;;;5027405;28;20409;-71
2021/12/17 15:13:39;;;;;;;24.23;11.20;;;7.80;88.00;;;;;;5019266;28;20186;-73
2021/12/17 15:16:04;;;;;;;23.97;10.33;;;7.80;88.00;;;;;;5020461;28;20439;-71
2021/12/17 15:18:30;;;;;;;22.77;12.63;;;7.80;88.30;;;;;;4999214;28;20186;-71
2021/12/17 15:20:57;;;;;;;21.70;10.93;;;7.80;88.60;;;;;;5031562;28;20572;-71
2021/12/17 15:23:24;;;;;;;21.83;12.40;;;7.70;88.70;;;;;;5026987;28;20926;-72
2021/12/17 15:25:51;;;;;;;20.70;11.97;;;7.70;89.20;;;;;;5015723;28;20420;-71
2021/12/17 15:28:22;;;;;;;20.07;11.40;;;7.80;89.00;;;;;;5010802;28;21267;-71
2021/12/17 15:30:52;;;;;;;23.77;13.03;;;7.70;89.00;;;;;;5017534;28;20451;-72
2021/12/17 15:33:18;;;;;;;24.50;12.43;;;7.50;89.50;;;;;;5022700;28;20440;-72
2021/12/17 15:35:46;;;;;;;23.27;12.03;;;7.40;89.60;;;;;;5020490;28;20854;-71
2021/12/17 15:38:13;;;;;;;20.53;11.57;;;7.40;89.70;;;;;;5019485;28;20177;-71
2021/12/17 15:40:42;;;;;;;24.07;12.90;;;7.30;90.00;;;;;;5018152;28;20463;-71
2021/12/17 15:43:08;;;;;;;26.50;12.43;;;7.30;90.10;;;;;;5023486;28;20428;-71
2021/12/17 15:45:39;;;;;;;23.00;12.07;;;7.40;90.20;;;;;;5028791;28;20432;-69
2021/12/17 15:48:07;;;;;;;25.70;12.53;;;7.40;90.00;;;;;;5028510;28;20464;-71
2021/12/17 15:50:33;;;;;;;25.63;11.63;;;7.40;89.60;;;;;;5028607;28;20517;-71
2021/12/17 15:53:00;;;;;;;25.67;14.70;;;7.30;89.60;;;;;;5028640;28;20451;-70
2021/12/17 15:55:29;;;;;;;19.30;12.23;;;7.20;89.90;;;;;;5028630;28;20444;-70
2021/12/17 15:57:56;;;;;;;22.93;13.07;;;7.20;89.90;;;;;;5019807;28;20443;-72
2021/12/17 16:00:28;;;;;;;27.43;12.73;;;7.20;90.00;;;;;;5018670;28;20448;-70
2021/12/17 16:02:54;;;;;;;21.53;12.20;;;7.20;90.00;;;;;;5021576;28;20455;-71
2021/12/17 16:05:23;;;;;;;23.07;12.87;;;7.20;90.10;;;;;;5024577;28;20464;-71
2021/12/17 16:07:51;;;;;;;22.03;12.40;;;7.20;90.00;;;;;;5010714;28;20475;-70
2021/12/17 16:18:47;;;;;;;24.47;13.33;;;7.20;89.60;;;;;;5021582;28;20420;-70
2021/12/17 16:21:14;;;;;;;21.67;12.07;;;7.10;89.60;;;;;;5022777;28;20443;-73
2021/12/17 16:23:45;;;;;;;21.23;12.70;;;7.20;89.70;;;;;;5027646;28;20420;-71
2021/12/17 16:26:13;;;;;;;28.20;12.30;;;7.20;89.30;;;;;;5028591;28;20427;-71
2021/12/17 16:28:45;;;;;;;19.33;11.53;;;7.20;89.60;;;;;;5029489;28;20995;-71